createdAt,value
2023-01-12T00:01:30.876Z,0.20
2023-01-12T00:03:57.911Z,0.20
2023-01-12T00:06:25.478Z,0.30
2023-01-12T00:08:53.167Z,0.30
2023-01-12T00:11:21.176Z,0.20
2023-01-12T00:13:48.315Z,0.20
2023-01-12T00:16:39.536Z,0.30
2023-01-12T00:19:12.436Z,0.20
2023-01-12T00:22:12.083Z,0.20
2023-01-12T00:24:44.182Z,0.38
2023-01-12T00:27:14.661Z,0.20
2023-01-12T00:29:41.641Z,0.50
2023-01-12T00:32:12.880Z,0.20
2023-01-12T00:34:39.778Z,0.20
2023-01-12T00:37:06.809Z,0.20
2023-01-12T00:39:40.428Z,0.20
2023-01-12T00:42:26.375Z,0.30
2023-01-12T00:45:11.692Z,0.25
2023-01-12T00:47:38.574Z,0.20
2023-01-12T00:50:05.902Z,0.20
2023-01-12T00:52:32.910Z,0.20
2023-01-12T00:55:00.050Z,0.20
2023-01-12T00:57:28.198Z,0.20
2023-01-12T01:02:24.107Z,0.20
2023-01-12T01:04:51.039Z,0.30
2023-01-12T01:07:18.624Z,0.22
2023-01-12T01:09:45.573Z,0.20
2023-01-12T01:12:12.904Z,0.77
2023-01-12T01:14:39.936Z,0.50
2023-01-12T01:17:06.860Z,0.20
2023-01-12T01:19:33.775Z,0.20
2023-01-12T01:22:00.648Z,0.20
2023-01-12T01:24:27.766Z,0.22
2023-01-12T01:26:54.669Z,0.33
2023-01-12T01:29:21.532Z,0.20
2023-01-12T01:31:48.396Z,0.20
2023-01-12T01:34:15.661Z,0.20
2023-01-12T01:36:42.795Z,0.20
2023-01-12T01:39:09.883Z,0.20
2023-01-12T01:41:36.836Z,0.22
2023-01-12T01:44:31.461Z,0.20
2023-01-12T01:47:03.880Z,0.20
2023-01-12T01:49:37.604Z,0.20
2023-01-12T01:52:22.608Z,0.20
2023-01-12T01:55:15.675Z,0.57
2023-01-12T01:57:48.680Z,0.20
2023-01-12T02:00:16.133Z,0.20
2023-01-12T02:02:45.632Z,0.20
2023-01-12T02:05:16.784Z,0.20
2023-01-12T02:07:44.755Z,0.20
2023-01-12T02:12:57.855Z,0.30
2023-01-12T02:15:46.810Z,0.43
2023-01-12T02:18:34.055Z,0.20
2023-01-12T02:21:12.712Z,0.20
2023-01-12T02:23:57.679Z,0.20
2023-01-12T02:27:08.084Z,0.20
2023-01-12T02:29:52.956Z,0.20
2023-01-12T02:32:40.852Z,0.20
2023-01-12T02:35:14.783Z,0.68
2023-01-12T02:38:02.299Z,0.20
2023-01-12T02:40:45.931Z,0.20
2023-01-12T02:43:27.735Z,0.20
2023-01-12T02:46:01.494Z,0.20
2023-01-12T02:48:47.768Z,0.20
2023-01-12T02:51:41.795Z,0.20
2023-01-12T02:54:12.815Z,0.40
2023-01-12T02:56:44.361Z,0.30
2023-01-12T02:59:25.657Z,0.43
2023-01-12T03:01:56.130Z,0.47
2023-01-12T03:04:23.654Z,0.20
2023-01-12T03:06:56.653Z,0.20
2023-01-12T03:09:38.964Z,0.20
2023-01-12T03:12:11.723Z,0.28
2023-01-12T03:14:42.100Z,0.20
2023-01-12T03:17:17.188Z,0.20
2023-01-12T03:19:47.114Z,0.20
2023-01-12T03:22:16.332Z,0.20
2023-01-12T03:24:52.595Z,0.20
2023-01-12T03:27:28.156Z,0.20
2023-01-12T03:30:00.955Z,0.20
2023-01-12T03:32:28.206Z,0.20
2023-01-12T03:34:55.088Z,0.20
2023-01-12T03:37:21.819Z,0.20
2023-01-12T03:40:00.744Z,0.20
2023-01-12T03:42:40.159Z,0.20
2023-01-12T03:45:09.874Z,0.20
2023-01-12T03:47:38.331Z,0.30
2023-01-12T03:50:22.299Z,0.20
2023-01-12T03:52:49.842Z,0.20
2023-01-12T03:55:19.355Z,0.20
2023-01-12T03:57:47.375Z,1.75
2023-01-12T04:02:44.846Z,0.95
2023-01-12T04:05:13.797Z,0.20
2023-01-12T04:07:41.005Z,0.20
2023-01-12T04:10:08.529Z,0.30
2023-01-12T04:12:35.413Z,0.20
2023-01-12T04:15:02.324Z,0.20
2023-01-12T04:17:29.319Z,0.20
2023-01-12T04:19:56.278Z,1.45
2023-01-12T04:22:41.645Z,0.20
2023-01-12T04:25:09.939Z,0.20
2023-01-12T04:27:40.534Z,0.20
2023-01-12T04:30:08.080Z,0.20
2023-01-12T04:32:34.851Z,0.20
2023-01-12T04:35:01.654Z,0.20
2023-01-12T04:37:28.518Z,0.38
2023-01-12T04:39:55.336Z,0.20
2023-01-12T04:42:40.960Z,0.17
2023-01-12T04:45:08.415Z,0.40
2023-01-12T04:47:35.252Z,0.20
2023-01-12T04:50:02.180Z,0.20
2023-01-12T04:52:29.002Z,1.95
2023-01-12T04:54:56.949Z,0.20
2023-01-12T04:59:51.097Z,0.20
2023-01-12T05:02:17.873Z,0.20
2023-01-12T05:04:46.882Z,0.40
2023-01-12T05:07:14.596Z,0.73
2023-01-12T05:10:00.433Z,0.57
2023-01-12T05:12:27.648Z,0.20
2023-01-12T05:14:54.802Z,0.40
2023-01-12T05:17:21.892Z,0.40
2023-01-12T05:19:49.728Z,0.20
2023-01-12T05:22:16.857Z,0.20
2023-01-12T05:24:43.671Z,0.15
2023-01-12T05:27:10.473Z,0.20
2023-01-12T05:29:37.672Z,0.20
2023-01-12T05:32:04.788Z,0.20
2023-01-12T05:34:31.593Z,0.20
2023-01-12T05:36:58.669Z,0.20
2023-01-12T05:39:25.468Z,0.20
2023-01-12T05:42:10.835Z,0.20
2023-01-12T05:44:37.741Z,0.10
2023-01-12T05:47:04.561Z,0.40
2023-01-12T05:49:31.411Z,0.20
2023-01-12T05:51:58.235Z,0.75
2023-01-12T05:54:25.086Z,1.00
2023-01-12T05:56:51.860Z,0.20
2023-01-12T05:59:18.745Z,0.70
2023-01-12T06:01:45.487Z,0.20
2023-01-12T06:04:12.682Z,0.40
2023-01-12T06:06:39.538Z,0.20
2023-01-12T06:09:06.378Z,0.40
2023-01-12T06:11:51.799Z,0.20
2023-01-12T06:14:18.636Z,0.20
2023-01-12T06:16:45.657Z,0.25
2023-01-12T06:19:13.314Z,0.20
2023-01-12T06:21:40.612Z,0.20
2023-01-12T06:24:08.262Z,0.20
2023-01-12T06:26:35.251Z,0.20
2023-01-12T06:29:05.326Z,0.20
2023-01-12T06:31:32.526Z,0.50
2023-01-12T06:33:59.334Z,0.20
2023-01-12T06:36:26.090Z,0.20
2023-01-12T06:38:52.941Z,0.93
2023-01-12T06:41:38.250Z,0.20
2023-01-12T06:44:05.169Z,0.28
2023-01-12T06:46:32.112Z,0.20
2023-01-12T06:48:59.081Z,0.20
2023-01-12T06:51:26.367Z,0.20
2023-01-12T06:53:53.303Z,0.90
2023-01-12T06:56:20.540Z,0.20
2023-01-12T06:58:47.660Z,0.47
2023-01-12T07:01:14.680Z,0.40
2023-01-12T07:03:41.699Z,0.30
2023-01-12T07:06:08.618Z,0.35
2023-01-12T07:08:36.250Z,1.23
2023-01-12T07:11:05.104Z,1.80
2023-01-12T07:13:32.231Z,1.00
2023-01-12T07:16:02.620Z,0.37
2023-01-12T07:18:30.877Z,0.20
2023-01-12T07:23:24.956Z,0.60
2023-01-12T07:25:51.834Z,1.53
2023-01-12T07:28:18.700Z,0.50
2023-01-12T07:30:46.297Z,1.08
2023-01-12T07:33:15.729Z,1.20
2023-01-12T07:35:43.668Z,0.47
2023-01-12T07:38:10.676Z,0.63
2023-01-12T07:40:37.638Z,0.25
2023-01-12T07:43:08.169Z,0.20
2023-01-12T07:45:36.566Z,0.35
2023-01-12T07:48:03.730Z,0.50
2023-01-12T07:50:30.705Z,0.30
2023-01-12T07:53:01.968Z,0.28
2023-01-12T07:55:30.575Z,0.17
2023-01-12T07:57:59.696Z,0.20
2023-01-12T08:00:27.558Z,0.50
2023-01-12T08:02:55.687Z,1.27
2023-01-12T08:07:50.066Z,1.30
2023-01-12T08:10:17.170Z,0.20
2023-01-12T08:12:44.156Z,0.40
2023-01-12T08:15:12.333Z,0.60
2023-01-12T08:17:56.802Z,0.60
2023-01-12T08:20:29.913Z,0.30
2023-01-12T08:23:01.443Z,0.40
2023-01-12T08:25:35.351Z,0.22
2023-01-12T08:28:06.477Z,0.32
2023-01-12T08:30:33.669Z,0.35
2023-01-12T08:33:01.810Z,0.30
2023-01-12T08:37:57.462Z,0.25
2023-01-12T08:40:45.000Z,0.25
2023-01-12T08:43:11.829Z,0.32
2023-01-12T08:45:38.783Z,0.22
2023-01-12T08:48:05.905Z,0.35
2023-01-12T08:50:32.705Z,0.70
2023-01-12T08:52:59.557Z,0.30
2023-01-12T08:55:26.403Z,0.28
2023-01-12T08:57:55.397Z,0.20
2023-01-12T09:00:22.513Z,0.10
2023-01-12T09:02:49.332Z,0.20
2023-01-12T09:05:16.618Z,0.20
2023-01-12T09:07:43.485Z,0.20
2023-01-12T09:10:10.395Z,0.35
2023-01-12T09:12:37.179Z,0.50
2023-01-12T09:15:04.426Z,0.77
2023-01-12T09:17:31.231Z,0.53
2023-01-12T09:19:58.034Z,0.82
2023-01-12T09:22:26.302Z,0.88
2023-01-12T09:24:53.403Z,0.88
2023-01-12T09:27:20.246Z,1.17
2023-01-12T09:29:47.077Z,1.00
2023-01-12T09:32:13.963Z,1.42
2023-01-12T09:34:41.021Z,0.63
2023-01-12T09:37:07.855Z,0.83
2023-01-12T09:39:35.010Z,0.40
2023-01-12T09:42:23.888Z,0.20
2023-01-12T09:45:10.778Z,0.32
2023-01-12T09:47:55.409Z,0.28
2023-01-12T09:50:29.135Z,0.20
2023-01-12T09:53:05.814Z,0.40
2023-01-12T09:55:52.235Z,0.40
2023-01-12T09:58:34.229Z,0.35
2023-01-12T10:01:09.044Z,0.20
2023-01-12T10:03:39.700Z,0.73
2023-01-12T10:06:14.179Z,0.30
2023-01-12T10:08:51.395Z,0.20
2023-01-12T10:11:49.167Z,0.70
2023-01-12T10:17:24.079Z,0.30
2023-01-12T10:20:00.186Z,0.63
2023-01-12T10:22:39.917Z,0.50
2023-01-12T10:25:31.182Z,0.30
2023-01-12T10:28:00.687Z,0.95
2023-01-12T10:30:38.988Z,0.20
2023-01-12T10:33:19.660Z,0.30
2023-01-12T10:35:58.689Z,0.32
2023-01-12T10:38:52.717Z,0.47
2023-01-12T10:41:22.189Z,0.30
2023-01-12T10:43:56.627Z,0.20
2023-01-12T10:46:27.024Z,0.82
2023-01-12T10:49:14.468Z,0.20
2023-01-12T10:51:57.897Z,0.20
2023-01-12T10:54:37.325Z,0.55
2023-01-12T10:57:24.042Z,0.20
2023-01-12T10:59:54.569Z,0.20
2023-01-12T11:02:24.110Z,0.20
2023-01-12T11:04:52.989Z,0.30
2023-01-12T11:07:29.145Z,0.40
2023-01-12T11:10:19.179Z,0.30
2023-01-12T11:12:56.338Z,0.40
2023-01-12T11:15:23.199Z,0.90
2023-01-12T11:17:56.980Z,0.60
2023-01-12T11:21:02.819Z,0.60
2023-01-12T11:23:58.115Z,0.65
2023-01-12T11:26:30.889Z,0.70
2023-01-12T11:29:06.331Z,0.93
2023-01-12T11:31:39.869Z,0.57
2023-01-12T11:34:21.777Z,1.05
2023-01-12T11:36:55.603Z,0.45
2023-01-12T11:39:27.685Z,1.13
2023-01-12T11:42:20.714Z,0.75
2023-01-12T11:44:58.204Z,0.73
2023-01-12T11:47:30.597Z,1.23
2023-01-12T11:50:06.893Z,1.88
2023-01-12T11:52:34.651Z,1.17
2023-01-12T11:55:02.119Z,0.77
2023-01-12T11:57:35.885Z,0.35
2023-01-12T12:00:27.712Z,0.60
2023-01-12T12:03:43.524Z,0.30
2023-01-12T12:06:43.395Z,0.65
2023-01-12T12:09:10.165Z,0.95
2023-01-12T12:11:43.143Z,0.95
2023-01-12T12:14:48.563Z,0.60
2023-01-12T12:17:34.668Z,1.27
2023-01-12T12:20:11.390Z,1.13
2023-01-12T12:23:03.715Z,1.40
2023-01-12T12:25:50.970Z,0.40
2023-01-12T12:28:39.201Z,0.40
2023-01-12T12:31:18.483Z,1.33
2023-01-12T12:34:04.227Z,1.05
2023-01-12T12:36:53.109Z,0.65
2023-01-12T12:39:35.164Z,1.25
2023-01-12T12:42:45.588Z,0.93
2023-01-12T12:45:35.663Z,0.50
2023-01-12T12:48:17.158Z,0.65
2023-01-12T12:51:00.852Z,1.02
2023-01-12T12:53:58.803Z,1.05
2023-01-12T12:56:26.268Z,1.00
2023-01-12T12:58:55.590Z,1.58
2023-01-12T13:01:25.457Z,2.95
2023-01-12T13:03:57.534Z,2.22
2023-01-12T13:06:29.006Z,1.25
2023-01-12T13:08:58.009Z,0.75
2023-01-12T13:11:53.828Z,0.20
2023-01-12T13:14:31.075Z,0.65
2023-01-12T13:17:03.986Z,0.40
2023-01-12T13:19:43.355Z,0.52
2023-01-12T13:22:30.938Z,0.20
2023-01-12T13:25:10.203Z,0.20
2023-01-12T13:28:04.284Z,0.95
2023-01-12T13:30:31.161Z,0.25
2023-01-12T13:33:27.068Z,0.80
2023-01-12T13:35:53.867Z,0.40
2023-01-12T13:38:39.554Z,0.40
2023-01-12T13:41:17.662Z,1.17
2023-01-12T13:43:47.589Z,0.70
2023-01-12T13:46:23.867Z,0.82
2023-01-12T13:48:53.836Z,0.60
2023-01-12T13:51:32.776Z,0.63
2023-01-12T13:54:02.672Z,0.30
2023-01-12T13:56:29.995Z,0.52
2023-01-12T13:59:02.508Z,1.20
2023-01-12T14:01:37.709Z,0.45
2023-01-12T14:04:14.017Z,1.45
2023-01-12T14:07:14.187Z,0.60
2023-01-12T14:10:06.711Z,1.33
2023-01-12T14:13:10.445Z,1.73
2023-01-12T14:15:57.765Z,0.43
2023-01-12T14:18:27.173Z,1.50
2023-01-12T14:20:59.384Z,1.30
2023-01-12T14:23:35.586Z,0.70
2023-01-12T14:26:09.785Z,2.20
2023-01-12T14:28:38.298Z,0.52
2023-01-12T14:31:08.658Z,0.47
2023-01-12T14:33:38.507Z,1.98
2023-01-12T14:36:12.503Z,1.42
2023-01-12T14:38:44.255Z,0.85
2023-01-12T14:41:38.707Z,1.15
2023-01-12T14:44:25.585Z,1.30
2023-01-12T14:46:53.992Z,0.60
2023-01-12T14:49:29.077Z,0.82
2023-01-12T14:51:58.722Z,1.05
2023-01-12T14:54:29.201Z,0.70
2023-01-12T14:57:04.260Z,0.47
2023-01-12T14:59:35.163Z,0.93
2023-01-12T15:02:21.017Z,2.03
2023-01-12T15:04:53.733Z,1.60
2023-01-12T15:07:22.266Z,0.55
2023-01-12T15:09:55.306Z,1.73
2023-01-12T15:12:43.956Z,2.35
2023-01-12T15:15:22.657Z,0.32
2023-01-12T15:18:11.618Z,0.32
2023-01-12T15:21:04.796Z,2.08
2023-01-12T15:23:54.150Z,0.85
2023-01-12T15:26:22.324Z,0.70
2023-01-12T15:28:49.850Z,0.30
2023-01-12T15:31:24.079Z,0.32
2023-01-12T15:33:51.269Z,0.98
2023-01-12T15:36:18.129Z,1.60
2023-01-12T15:38:45.010Z,2.72
2023-01-12T15:41:17.874Z,1.38
2023-01-12T15:43:44.709Z,1.38
2023-01-12T15:46:20.737Z,1.30
2023-01-12T15:48:47.565Z,1.35
2023-01-12T15:51:16.026Z,1.23
2023-01-12T15:53:42.934Z,0.75
2023-01-12T15:56:12.651Z,1.88
2023-01-12T15:58:39.433Z,0.57
2023-01-12T16:01:10.260Z,0.40
2023-01-12T16:04:04.876Z,0.50
2023-01-12T16:06:31.030Z,1.20
2023-01-12T16:08:58.198Z,0.73
2023-01-12T16:11:25.005Z,1.10
2023-01-12T16:13:51.835Z,1.08
2023-01-12T16:16:21.437Z,1.33
2023-01-12T16:18:51.024Z,0.90
2023-01-12T16:21:22.632Z,0.88
2023-01-12T16:23:50.052Z,0.75
2023-01-12T16:26:16.935Z,1.73
2023-01-12T16:28:44.003Z,2.55
2023-01-12T16:31:13.368Z,2.20
2023-01-12T16:33:41.503Z,1.00
2023-01-12T16:38:36.440Z,0.80
2023-01-12T16:41:23.563Z,1.38
2023-01-12T16:43:50.630Z,2.50
2023-01-12T16:46:17.751Z,1.45
2023-01-12T16:48:45.835Z,1.30
2023-01-12T16:53:46.556Z,1.00
2023-01-12T16:56:15.744Z,0.90
2023-01-12T16:58:48.041Z,0.80
2023-01-12T17:01:24.771Z,1.17
2023-01-12T17:03:53.728Z,0.98
2023-01-12T17:06:21.981Z,0.85
2023-01-12T17:08:49.502Z,1.67
2023-01-12T17:11:19.713Z,1.67
2023-01-12T17:13:57.699Z,1.30
2023-01-12T17:16:27.435Z,0.90
2023-01-12T17:18:54.434Z,0.93
2023-01-12T17:21:22.216Z,1.47
2023-01-12T17:23:49.441Z,2.15
2023-01-12T17:26:18.172Z,2.22
2023-01-12T17:28:46.622Z,1.20
2023-01-12T17:31:18.720Z,1.95
2023-01-12T17:33:46.490Z,2.38
2023-01-12T17:36:14.054Z,3.28
2023-01-12T17:38:41.025Z,1.65
2023-01-12T17:41:32.338Z,1.90
2023-01-12T17:44:01.582Z,3.22
2023-01-12T17:46:29.018Z,2.85
2023-01-12T17:48:59.000Z,2.35
2023-01-12T17:51:26.458Z,3.70
2023-01-12T17:53:56.849Z,2.55
2023-01-12T17:56:24.649Z,2.78
2023-01-12T17:58:52.909Z,4.82
2023-01-12T18:01:23.952Z,2.70
2023-01-12T18:03:50.905Z,2.30
2023-01-12T18:06:25.770Z,2.75
2023-01-12T18:08:56.433Z,3.72
2023-01-12T18:11:24.071Z,1.90
2023-01-12T18:13:50.935Z,3.53
2023-01-12T18:16:17.900Z,2.85
2023-01-12T18:18:45.016Z,4.85
2023-01-12T18:21:14.342Z,2.85
2023-01-12T18:23:44.328Z,1.85
2023-01-12T18:26:17.165Z,1.85
2023-01-12T18:28:45.040Z,1.23
2023-01-12T18:31:15.261Z,1.48
2023-01-12T18:33:42.868Z,1.85
2023-01-12T18:36:18.443Z,1.42
2023-01-12T18:38:45.462Z,1.73
2023-01-12T18:41:31.479Z,2.60
2023-01-12T18:44:01.788Z,1.95
2023-01-12T18:46:47.390Z,0.45
2023-01-12T18:49:14.254Z,1.33
2023-01-12T18:51:59.620Z,0.70
2023-01-12T18:54:26.469Z,0.50
2023-01-12T18:56:53.330Z,0.73
2023-01-12T18:59:20.975Z,0.82
2023-01-12T19:01:49.289Z,0.63
2023-01-12T19:04:26.066Z,0.22
2023-01-12T19:06:59.345Z,1.75
2023-01-12T19:09:35.448Z,0.38
2023-01-12T19:12:04.017Z,1.20
2023-01-12T19:14:50.037Z,1.13
2023-01-12T19:17:32.958Z,1.15
2023-01-12T19:20:02.135Z,0.60
2023-01-12T19:22:47.645Z,0.45
2023-01-12T19:25:35.232Z,0.38
2023-01-12T19:28:20.738Z,0.57
2023-01-12T19:30:48.026Z,1.85
2023-01-12T19:33:16.034Z,1.48
2023-01-12T19:35:44.784Z,0.30
2023-01-12T19:38:13.764Z,0.73
2023-01-12T19:40:44.962Z,0.45
2023-01-12T19:43:14.709Z,1.23
2023-01-12T19:45:50.094Z,0.38
2023-01-12T19:48:19.666Z,0.20
2023-01-12T19:50:46.796Z,0.20
2023-01-12T19:53:28.053Z,0.60
2023-01-12T19:55:55.036Z,0.52
2023-01-12T19:58:22.240Z,0.32
2023-01-12T20:00:49.917Z,0.90
2023-01-12T20:03:22.130Z,0.38
2023-01-12T20:05:51.020Z,0.80
2023-01-12T20:08:23.114Z,0.95
2023-01-12T20:10:58.402Z,0.95
2023-01-12T20:13:26.847Z,0.32
2023-01-12T20:15:56.285Z,1.45
2023-01-12T20:18:23.555Z,1.70
2023-01-12T20:20:50.972Z,0.50
2023-01-12T20:23:19.937Z,0.20
2023-01-12T20:25:46.921Z,0.73
2023-01-12T20:28:14.828Z,0.40
2023-01-12T20:30:43.072Z,0.45
2023-01-12T20:33:10.818Z,0.82
2023-01-12T20:35:42.926Z,0.80
2023-01-12T20:38:15.526Z,1.55
2023-01-12T20:40:44.348Z,0.30
2023-01-12T20:43:11.216Z,0.95
2023-01-12T20:45:40.500Z,0.35
2023-01-12T20:48:07.466Z,0.38
2023-01-12T20:50:34.343Z,0.30
2023-01-12T20:53:01.360Z,0.50
2023-01-12T20:55:28.223Z,0.30
2023-01-12T20:57:55.021Z,0.20
2023-01-12T21:00:21.930Z,0.45
2023-01-12T21:02:48.869Z,1.10
2023-01-12T21:05:15.815Z,0.10
2023-01-12T21:07:42.649Z,1.77
2023-01-12T21:10:12.012Z,0.20
2023-01-12T21:12:39.096Z,0.30
2023-01-12T21:15:06.541Z,0.52
2023-01-12T21:17:35.483Z,1.08
2023-01-12T21:20:02.280Z,1.27
2023-01-12T21:22:29.177Z,0.20
2023-01-12T21:24:56.068Z,0.20
2023-01-12T21:27:22.917Z,0.30
2023-01-12T21:29:49.927Z,0.20
2023-01-12T21:32:16.733Z,2.17
2023-01-12T21:34:43.823Z,0.20
2023-01-12T21:37:11.254Z,0.30
2023-01-12T21:39:38.042Z,0.32
2023-01-12T21:42:23.560Z,1.10
2023-01-12T21:44:50.374Z,0.20
2023-01-12T21:47:17.162Z,0.52
2023-01-12T21:49:43.939Z,0.55
2023-01-12T21:52:11.229Z,0.75
2023-01-12T21:54:38.179Z,0.55
2023-01-12T21:57:05.431Z,0.77
2023-01-12T21:59:32.229Z,0.20
2023-01-12T22:01:59.107Z,0.30
2023-01-12T22:04:25.979Z,0.75
2023-01-12T22:06:53.297Z,0.30
2023-01-12T22:09:20.799Z,0.30
2023-01-12T22:11:47.617Z,0.20
2023-01-12T22:14:14.623Z,0.30
2023-01-12T22:16:41.567Z,0.20
2023-01-12T22:19:08.399Z,0.20
2023-01-12T22:21:35.269Z,0.70
2023-01-12T22:24:03.871Z,0.45
2023-01-12T22:26:32.628Z,0.20
2023-01-12T22:28:59.663Z,0.20
2023-01-12T22:31:26.705Z,0.20
2023-01-12T22:34:04.828Z,0.50
2023-01-12T22:36:35.082Z,0.20
2023-01-12T22:39:02.511Z,0.20
2023-01-12T22:41:29.347Z,0.90
2023-01-12T22:43:56.248Z,0.50
2023-01-12T22:46:27.326Z,0.30
2023-01-12T22:48:56.232Z,0.45
2023-01-12T22:51:24.970Z,0.20
2023-01-12T22:53:52.236Z,0.77
2023-01-12T22:56:19.265Z,0.60
2023-01-12T22:58:51.650Z,0.30
2023-01-12T23:01:19.909Z,0.38
2023-01-12T23:03:48.305Z,0.30
2023-01-12T23:06:17.043Z,0.20
2023-01-12T23:08:45.285Z,0.20
2023-01-12T23:11:21.688Z,0.45
2023-01-12T23:13:48.952Z,0.25
2023-01-12T23:16:18.133Z,0.30
2023-01-12T23:18:46.635Z,0.20
2023-01-12T23:21:25.196Z,0.20
2023-01-12T23:24:01.198Z,0.68
2023-01-12T23:26:33.830Z,0.10
2023-01-12T23:29:02.958Z,0.20
2023-01-12T23:31:34.615Z,0.52
2023-01-12T23:34:01.784Z,0.30
2023-01-12T23:36:30.000Z,1.50
2023-01-12T23:38:59.568Z,0.50
2023-01-12T23:41:27.799Z,0.40
2023-01-12T23:43:57.263Z,0.80
2023-01-12T23:46:24.550Z,0.82
2023-01-12T23:48:54.461Z,0.20
2023-01-12T23:51:22.577Z,0.28
2023-01-12T23:56:19.896Z,0.32
